createdAt,value
2022-09-05T00:00:04.458Z,17.70
2022-09-05T00:04:53.081Z,17.60
2022-09-05T00:09:50.251Z,17.50
2022-09-05T00:15:16.218Z,17.40
2022-09-05T00:24:20.387Z,17.40
2022-09-05T00:25:20.924Z,17.40
2022-09-05T00:31:07.199Z,17.30
2022-09-05T00:35:19.092Z,17.30
2022-09-05T00:40:18.456Z,17.30
2022-09-05T00:44:56.058Z,17.30
2022-09-05T00:49:37.264Z,17.20
2022-09-05T00:54:32.589Z,17.20
2022-09-05T00:59:58.997Z,17.20
2022-09-05T01:04:45.859Z,17.20
2022-09-05T01:09:33.829Z,17.10
2022-09-05T01:14:25.205Z,17.00
2022-09-05T01:19:15.980Z,17.00
2022-09-05T01:24:13.340Z,16.90
2022-09-05T01:29:16.558Z,17.00
2022-09-05T01:33:59.151Z,16.90
2022-09-05T01:38:51.636Z,16.80
2022-09-05T01:44:09.114Z,16.80
2022-09-05T01:48:52.484Z,16.70
2022-09-05T01:53:38.293Z,16.70
2022-09-05T01:58:21.016Z,16.60
2022-09-05T02:03:08.258Z,16.60
2022-09-05T02:08:14.183Z,16.50
2022-09-05T02:13:02.290Z,16.50
2022-09-05T02:17:50.881Z,16.40
2022-09-05T02:22:34.565Z,16.40
2022-09-05T02:28:05.036Z,16.40
2022-09-05T02:32:32.701Z,16.40
2022-09-05T02:37:15.924Z,16.40
2022-09-05T02:45:14.355Z,16.40
2022-09-05T02:47:09.763Z,16.30
2022-09-05T02:57:25.071Z,16.30
2022-09-05T02:57:45.082Z,16.30
2022-09-05T03:02:25.611Z,16.20
2022-09-05T03:07:13.626Z,16.20
2022-09-05T03:12:28.394Z,16.20
2022-09-05T03:17:37.961Z,16.10
2022-09-05T03:23:02.936Z,16.00
2022-09-05T03:28:20.569Z,16.00
2022-09-05T03:33:42.466Z,15.90
2022-09-05T03:38:51.102Z,15.80
2022-09-05T03:43:38.805Z,15.70
2022-09-05T03:48:46.921Z,15.60
2022-09-05T03:57:22.568Z,15.50
2022-09-05T03:59:27.015Z,15.40
2022-09-05T04:08:08.891Z,15.40
2022-09-05T04:09:10.643Z,15.30
2022-09-05T04:13:50.607Z,15.30
2022-09-05T04:18:33.137Z,15.30
2022-09-05T04:23:20.101Z,15.30
2022-09-05T04:28:11.947Z,15.30
2022-09-05T04:32:54.775Z,15.30
2022-09-05T04:37:48.858Z,15.30
2022-09-05T04:42:25.424Z,15.30
2022-09-05T04:47:04.607Z,15.30
2022-09-05T04:52:13.813Z,15.40
2022-09-05T04:57:02.753Z,15.70
2022-09-05T05:06:19.105Z,15.90
2022-09-05T05:07:05.940Z,16.10
2022-09-05T05:17:58.944Z,16.20
2022-09-05T05:18:08.286Z,16.60
2022-09-05T05:21:48.010Z,17.20
2022-09-05T05:26:25.479Z,18.00
2022-09-05T05:31:11.604Z,18.70
2022-09-05T05:35:49.724Z,19.30
2022-09-05T05:40:28.658Z,19.80
2022-09-05T05:45:05.066Z,20.30
2022-09-05T05:49:51.619Z,20.80
2022-09-05T05:54:33.401Z,21.40
2022-09-05T05:59:25.125Z,21.60
2022-09-05T06:04:26.947Z,22.00
2022-09-05T06:14:49.991Z,22.70
2022-09-05T06:15:17.790Z,23.30
2022-09-05T06:22:03.987Z,23.40
2022-09-05T06:25:59.173Z,23.50
2022-09-05T06:30:41.823Z,23.70
2022-09-05T06:35:35.441Z,23.70
2022-09-05T06:40:18.584Z,23.70
2022-09-05T06:45:28.181Z,23.80
2022-09-05T06:50:23.806Z,23.90
2022-09-05T06:55:35.742Z,23.70
2022-09-05T07:00:22.282Z,23.50
2022-09-05T07:05:37.943Z,23.40
2022-09-05T07:10:37.547Z,23.60
2022-09-05T07:15:16.631Z,24.10
2022-09-05T07:19:55.599Z,24.30
2022-09-05T07:24:55.099Z,24.10
2022-09-05T07:29:33.382Z,24.40
2022-09-05T07:34:21.074Z,25.00
2022-09-05T07:39:25.120Z,25.20
2022-09-05T07:44:03.186Z,25.40
2022-09-05T07:48:40.649Z,25.90
2022-09-05T07:57:01.033Z,25.90
2022-09-05T07:58:17.271Z,26.30
2022-09-05T08:02:54.972Z,27.00
2022-09-05T08:07:49.478Z,27.60
2022-09-05T08:12:28.875Z,28.10
2022-09-05T08:17:06.110Z,28.40
2022-09-05T08:21:47.102Z,28.60
2022-09-05T08:26:32.822Z,28.90
2022-09-05T08:31:11.240Z,29.10
2022-09-05T08:35:53.042Z,29.60
2022-09-05T08:40:39.006Z,30.10
2022-09-05T08:46:41.284Z,30.60
2022-09-05T08:50:28.855Z,30.90
2022-09-05T08:55:14.517Z,30.70
2022-09-05T09:00:20.447Z,30.20
2022-09-05T09:05:14.413Z,30.20
2022-09-05T09:09:59.353Z,30.50
2022-09-05T09:14:43.721Z,31.00
2022-09-05T09:19:29.430Z,31.10
2022-09-05T09:24:16.762Z,31.10
2022-09-05T09:28:55.450Z,30.90
2022-09-05T09:33:39.603Z,31.20
2022-09-05T09:38:30.927Z,31.50
2022-09-05T09:43:09.255Z,31.80
2022-09-05T09:48:11.230Z,31.80
2022-09-05T09:53:22.259Z,31.90
2022-09-05T09:58:24.705Z,31.90
2022-09-05T10:08:12.259Z,31.70
2022-09-05T10:10:53.555Z,31.40
2022-09-05T10:14:06.302Z,31.20
2022-09-05T10:18:56.012Z,31.40
2022-09-05T10:24:01.366Z,31.70
2022-09-05T10:28:42.794Z,32.00
2022-09-05T10:35:21.407Z,32.30
2022-09-05T10:38:40.447Z,32.40
2022-09-05T10:43:23.165Z,32.40
2022-09-05T10:48:13.027Z,32.30
2022-09-05T10:53:03.360Z,32.30
2022-09-05T10:57:42.245Z,32.20
2022-09-05T11:02:34.923Z,31.80
2022-09-05T11:07:15.394Z,31.60
2022-09-05T11:12:04.172Z,31.60
2022-09-05T11:16:46.761Z,31.30
2022-09-05T11:21:26.870Z,31.00
2022-09-05T11:26:05.612Z,30.80
2022-09-05T11:30:44.362Z,31.00
2022-09-05T11:40:04.115Z,30.80
2022-09-05T11:40:56.895Z,30.80
2022-09-05T11:45:59.543Z,30.90
2022-09-05T11:50:57.556Z,31.10
2022-09-05T11:55:54.472Z,31.20
2022-09-05T12:00:37.950Z,31.10
2022-09-05T12:05:49.773Z,31.10
2022-09-05T12:10:48.283Z,30.60
2022-09-05T12:15:27.092Z,29.80
2022-09-05T12:20:17.092Z,29.30
2022-09-05T12:25:26.577Z,28.80
2022-09-05T12:30:07.790Z,28.40
2022-09-05T12:36:06.214Z,28.10
2022-09-05T12:41:32.171Z,27.80
2022-09-05T12:44:51.132Z,27.70
2022-09-05T12:49:36.156Z,27.70
2022-09-05T12:54:26.248Z,27.70
2022-09-05T13:02:58.169Z,27.70
2022-09-05T13:04:20.113Z,27.70
2022-09-05T13:09:10.367Z,27.70
2022-09-05T13:14:53.192Z,27.80
2022-09-05T13:18:44.831Z,27.80
2022-09-05T13:23:25.249Z,27.70
2022-09-05T13:28:03.781Z,27.70
2022-09-05T13:38:07.593Z,27.70
2022-09-05T13:38:11.256Z,27.70
2022-09-05T13:42:41.290Z,27.60
2022-09-05T13:47:36.248Z,27.60
2022-09-05T13:52:29.043Z,27.50
2022-09-05T13:57:32.643Z,27.40
2022-09-05T14:02:28.760Z,27.40
2022-09-05T14:07:44.669Z,27.40
2022-09-05T14:12:32.013Z,27.40
2022-09-05T14:22:05.045Z,27.40
2022-09-05T14:26:46.361Z,27.40
2022-09-05T14:37:35.028Z,27.30
2022-09-05T14:37:50.882Z,27.30
2022-09-05T14:42:03.573Z,27.40
2022-09-05T14:47:32.402Z,27.40
2022-09-05T14:52:20.318Z,27.30
2022-09-05T15:01:51.387Z,27.30
2022-09-05T15:02:50.439Z,27.30
2022-09-05T15:07:08.684Z,27.30
2022-09-05T15:12:25.883Z,27.20
2022-09-05T15:16:45.689Z,27.10
2022-09-05T15:21:33.945Z,27.10
2022-09-05T15:26:25.732Z,27.10
2022-09-05T15:31:05.064Z,27.00
2022-09-05T15:35:43.934Z,27.00
2022-09-05T15:40:23.191Z,27.00
2022-09-05T15:45:10.442Z,27.00
2022-09-05T15:49:55.630Z,26.90
2022-09-05T15:54:38.734Z,26.90
2022-09-05T15:59:14.304Z,26.80
2022-09-05T16:06:53.899Z,26.70
2022-09-05T16:10:33.772Z,26.60
2022-09-05T16:13:53.219Z,26.40
2022-09-05T16:23:28.262Z,26.30
2022-09-05T16:23:41.355Z,26.20
2022-09-05T16:28:26.269Z,26.10
2022-09-05T16:33:06.744Z,26.10
2022-09-05T16:37:44.908Z,26.00
2022-09-05T16:42:47.151Z,25.90
2022-09-05T16:47:25.705Z,25.80
2022-09-05T16:52:06.997Z,25.80
2022-09-05T16:56:44.509Z,25.70
2022-09-05T17:01:34.635Z,25.60
2022-09-05T17:06:25.812Z,25.60
2022-09-05T17:11:12.297Z,25.50
2022-09-05T17:16:01.189Z,25.40
2022-09-05T17:20:37.865Z,25.30
2022-09-05T17:29:31.059Z,25.20
2022-09-05T17:35:43.255Z,24.90
2022-09-05T17:40:59.397Z,24.80
2022-09-05T17:45:46.331Z,24.60
2022-09-05T17:50:51.066Z,24.50
2022-09-05T17:56:23.656Z,24.30
2022-09-05T18:01:18.658Z,24.20
2022-09-05T18:06:03.834Z,24.10
2022-09-05T18:11:01.933Z,24.00
2022-09-05T18:16:12.097Z,23.90
2022-09-05T18:21:21.802Z,23.80
2022-09-05T18:26:00.063Z,23.70
2022-09-05T18:30:36.304Z,23.60
2022-09-05T18:35:36.383Z,23.50
2022-09-05T18:40:46.096Z,23.40
2022-09-05T18:45:28.234Z,23.30
2022-09-05T18:50:26.522Z,23.20
2022-09-05T18:56:09.254Z,23.10
2022-09-05T19:00:04.651Z,23.00
2022-09-05T19:04:49.367Z,23.00
2022-09-05T19:09:28.505Z,22.90
2022-09-05T19:14:26.137Z,22.80
2022-09-05T19:19:16.666Z,22.70
2022-09-05T19:23:53.783Z,22.60
2022-09-05T19:36:51.373Z,22.60
2022-09-05T19:37:15.394Z,22.50
2022-09-05T19:38:22.572Z,22.40
2022-09-05T19:47:44.518Z,22.30
2022-09-05T19:48:07.645Z,22.20
2022-09-05T19:52:42.584Z,22.10
2022-09-05T19:57:20.602Z,22.00
2022-09-05T20:01:55.088Z,21.90
2022-09-05T20:06:31.289Z,21.70
2022-09-05T20:11:06.699Z,21.70
2022-09-05T20:15:42.562Z,21.60
2022-09-05T20:20:22.321Z,21.50
2022-09-05T20:24:56.610Z,21.40
2022-09-05T20:29:54.029Z,21.30
2022-09-05T20:37:21.378Z,21.20
2022-09-05T20:43:20.491Z,21.20
2022-09-05T20:44:37.853Z,21.10
2022-09-05T20:54:07.326Z,21.00
2022-09-05T20:54:31.900Z,21.00
2022-09-05T20:59:14.129Z,20.80
2022-09-05T21:03:56.455Z,20.80
2022-09-05T21:08:34.735Z,20.70
2022-09-05T21:13:11.059Z,20.70
2022-09-05T21:17:46.010Z,20.50
2022-09-05T21:22:25.853Z,20.50
2022-09-05T21:27:16.813Z,20.40
2022-09-05T21:31:57.578Z,20.30
2022-09-05T21:36:34.938Z,20.30
2022-09-05T21:41:09.462Z,20.20
2022-09-05T21:47:46.738Z,20.10
2022-09-05T21:50:49.512Z,20.00
2022-09-05T21:59:24.924Z,20.00
2022-09-05T22:00:20.277Z,19.90
2022-09-05T22:05:02.820Z,19.80
2022-09-05T22:09:38.892Z,19.80
2022-09-05T22:14:13.063Z,19.80
2022-09-05T22:18:48.729Z,19.70
2022-09-05T22:23:22.848Z,19.70
2022-09-05T22:28:06.317Z,19.60
2022-09-05T22:32:40.742Z,19.60
2022-09-05T22:37:16.833Z,19.50
2022-09-05T22:41:50.996Z,19.50
2022-09-05T22:46:26.561Z,19.40
2022-09-05T22:51:00.687Z,19.40
2022-09-05T22:55:35.390Z,19.40
2022-09-05T23:00:10.875Z,19.30
2022-09-05T23:04:46.298Z,19.20
2022-09-05T23:09:20.264Z,19.20
2022-09-05T23:13:54.241Z,19.10
2022-09-05T23:18:30.198Z,19.10
2022-09-05T23:23:07.544Z,19.00
2022-09-05T23:27:41.530Z,18.90
2022-09-05T23:32:15.682Z,18.90
2022-09-05T23:36:49.821Z,18.80
2022-09-05T23:41:25.335Z,18.70
2022-09-05T23:45:59.641Z,18.60
2022-09-05T23:50:33.627Z,18.60
2022-09-05T23:55:08.490Z,18.50
2022-09-05T23:59:43.859Z,18.50
